createdAt,value
2017-07-10T00:00:30.389Z,1006.39
2017-07-10T00:01:42.991Z,1006.35
2017-07-10T00:02:55.272Z,1006.32
2017-07-10T00:04:07.551Z,1006.3
2017-07-10T00:05:19.826Z,1006.27
2017-07-10T00:06:32.443Z,1006.3
2017-07-10T00:07:45.008Z,1006.28
2017-07-10T00:08:57.615Z,1006.22
2017-07-10T00:10:09.936Z,1006.18
2017-07-10T00:11:21.919Z,1006.19
2017-07-10T00:12:34.173Z,1006.14
2017-07-10T00:13:46.444Z,1006.16
2017-07-10T00:14:58.971Z,1006.1
2017-07-10T00:16:10.964Z,1006.09
2017-07-10T00:17:23.563Z,1006.06
2017-07-10T00:18:35.877Z,1006.08
2017-07-10T00:19:48.480Z,1006.07
2017-07-10T00:21:01.168Z,1006.08
2017-07-10T00:22:13.432Z,1006.06
2017-07-10T00:23:25.043Z,1006.03
2017-07-10T00:24:37.324Z,1005.99
2017-07-10T00:25:49.292Z,1005.99
2017-07-10T00:27:01.880Z,1005.94
2017-07-10T00:28:14.121Z,1005.97
2017-07-10T00:29:26.744Z,1006.01
2017-07-10T00:30:39.036Z,1006
2017-07-10T00:31:51.658Z,1006.04
2017-07-10T00:33:04.185Z,1006.02
2017-07-10T00:34:16.516Z,1005.99
2017-07-10T00:35:29.119Z,1005.96
2017-07-10T00:36:41.691Z,1005.97
2017-07-10T00:37:53.300Z,1005.93
2017-07-10T00:39:05.570Z,1005.94
2017-07-10T00:40:18.160Z,1005.9
2017-07-10T00:41:30.428Z,1005.93
2017-07-10T00:42:42.722Z,1005.92
2017-07-10T00:43:54.667Z,1005.89
2017-07-10T00:45:07.263Z,1005.9
2017-07-10T00:46:19.227Z,1005.86
2017-07-10T00:47:31.536Z,1005.84
2017-07-10T00:48:43.486Z,1005.84
2017-07-10T00:49:56.029Z,1005.81
2017-07-10T00:51:08.280Z,1005.78
2017-07-10T00:52:20.576Z,1005.79
2017-07-10T00:53:32.917Z,1005.77
2017-07-10T00:54:45.557Z,1005.78
2017-07-10T00:55:58.158Z,1005.78
2017-07-10T00:57:09.854Z,1005.78
2017-07-10T00:58:22.121Z,1005.77
2017-07-10T00:59:34.713Z,1005.77
2017-07-10T01:00:47.303Z,1005.72
2017-07-10T01:01:59.856Z,1005.72
2017-07-10T01:03:12.163Z,1005.74
2017-07-10T01:04:23.827Z,1005.73
2017-07-10T01:05:36.119Z,1005.74
2017-07-10T01:06:48.026Z,1005.68
2017-07-10T01:07:59.663Z,1005.66
2017-07-10T01:09:11.969Z,1005.62
2017-07-10T01:10:24.205Z,1005.64
2017-07-10T01:11:36.477Z,1005.64
2017-07-10T01:12:49.101Z,1005.57
2017-07-10T01:14:01.392Z,1005.61
2017-07-10T01:15:13.661Z,1005.63
2017-07-10T01:16:25.882Z,1005.62
2017-07-10T01:17:37.789Z,1005.6
2017-07-10T01:18:50.410Z,1005.61
2017-07-10T01:20:02.999Z,1005.59
2017-07-10T01:21:15.280Z,1005.6
2017-07-10T01:22:27.836Z,1005.56
2017-07-10T01:23:39.189Z,1005.54
2017-07-10T01:24:51.728Z,1005.6
2017-07-10T01:26:04.282Z,1005.55
2017-07-10T01:27:16.583Z,1005.55
2017-07-10T01:28:28.890Z,1005.51
2017-07-10T01:29:41.515Z,1005.51
2017-07-10T01:30:54.151Z,1005.47
2017-07-10T01:32:06.689Z,1005.41
2017-07-10T01:33:19.529Z,1005.35
2017-07-10T01:34:31.482Z,1005.34
2017-07-10T01:35:44.047Z,1005.34
2017-07-10T01:36:56.241Z,1005.29
2017-07-10T01:38:08.497Z,1005.25
2017-07-10T01:39:21.029Z,1005.14
2017-07-10T01:40:33.590Z,1005.13
2017-07-10T01:41:45.520Z,1005.09
2017-07-10T01:42:57.773Z,1005.1
2017-07-10T01:44:09.774Z,1005.05
2017-07-10T01:45:21.751Z,1005.07
2017-07-10T01:46:33.997Z,1005.05
2017-07-10T01:47:46.219Z,1005.05
2017-07-10T01:48:58.783Z,1005.04
2017-07-10T01:50:10.459Z,1005.04
2017-07-10T01:51:22.963Z,1005.08
2017-07-10T01:52:35.533Z,1005.06
2017-07-10T01:53:48.108Z,1005.11
2017-07-10T01:55:00.382Z,1005.07
2017-07-10T01:56:12.947Z,1005.09
2017-07-10T01:57:25.549Z,1005.07
2017-07-10T01:58:38.150Z,1005.06
2017-07-10T01:59:50.513Z,1005.02
2017-07-10T02:01:02.872Z,1005.01
2017-07-10T02:02:15.133Z,1005
2017-07-10T02:03:27.400Z,1004.97
2017-07-10T02:04:39.981Z,1004.98
2017-07-10T02:05:52.602Z,1005.02
2017-07-10T02:07:05.172Z,1005.01
2017-07-10T02:08:17.487Z,1004.97
2017-07-10T02:09:29.520Z,1004.96
2017-07-10T02:10:41.786Z,1004.99
2017-07-10T02:11:54.361Z,1004.96
2017-07-10T02:13:06.590Z,1004.98
2017-07-10T02:14:18.837Z,1005.02
2017-07-10T02:15:31.418Z,1005.02
2017-07-10T02:16:43.690Z,1004.99
2017-07-10T02:17:56.273Z,1005
2017-07-10T02:19:08.847Z,1004.99
2017-07-10T02:20:21.115Z,1004.96
2017-07-10T02:21:33.672Z,1005.02
2017-07-10T02:22:46.007Z,1004.97
2017-07-10T02:23:58.270Z,1004.99
2017-07-10T02:25:10.505Z,1005.04
2017-07-10T02:26:23.099Z,1005.02
2017-07-10T02:27:35.928Z,1005.05
2017-07-10T02:28:48.218Z,1005.03
2017-07-10T02:30:00.537Z,1005.02
2017-07-10T02:31:12.785Z,1005.05
2017-07-10T02:32:25.299Z,1005.01
2017-07-10T02:33:37.887Z,1005.06
2017-07-10T02:34:50.443Z,1005.02
2017-07-10T02:36:03.037Z,1005
2017-07-10T02:37:15.236Z,1005.04
2017-07-10T02:38:27.503Z,1005.04
2017-07-10T02:39:39.787Z,1005.05
2017-07-10T02:40:52.046Z,1005.07
2017-07-10T02:42:04.016Z,1005.09
2017-07-10T02:43:16.252Z,1005.07
2017-07-10T02:44:28.846Z,1005.05
2017-07-10T02:45:41.405Z,1005
2017-07-10T02:46:52.735Z,1004.99
2017-07-10T02:48:04.978Z,1004.97
2017-07-10T02:49:16.947Z,1004.99
2017-07-10T02:50:29.188Z,1005
2017-07-10T02:51:41.789Z,1004.92
2017-07-10T02:52:54.384Z,1004.87
2017-07-10T02:54:07.038Z,1004.87
2017-07-10T02:55:19.661Z,1004.85
2017-07-10T02:56:31.944Z,1004.84
2017-07-10T02:57:44.167Z,1004.86
2017-07-10T02:58:56.766Z,1004.82
2017-07-10T03:00:09.356Z,1004.84
2017-07-10T03:01:21.689Z,1004.84
2017-07-10T03:02:33.625Z,1004.83
2017-07-10T03:03:46.222Z,1004.78
2017-07-10T03:04:58.501Z,1004.82
2017-07-10T03:06:10.808Z,1004.84
2017-07-10T03:07:23.085Z,1004.81
2017-07-10T03:08:35.413Z,1004.77
2017-07-10T03:09:47.385Z,1004.79
2017-07-10T03:10:59.969Z,1004.75
2017-07-10T03:12:12.546Z,1004.74
2017-07-10T03:13:24.486Z,1004.76
2017-07-10T03:14:36.761Z,1004.75
2017-07-10T03:15:48.731Z,1004.73
2017-07-10T03:17:01.323Z,1004.74
2017-07-10T03:18:13.286Z,1004.7
2017-07-10T03:19:25.574Z,1004.73
2017-07-10T03:20:37.539Z,1004.67
2017-07-10T03:21:50.374Z,1004.63
2017-07-10T03:23:02.977Z,1004.62
2017-07-10T03:24:14.585Z,1004.65
2017-07-10T03:25:27.252Z,1004.59
2017-07-10T03:26:39.798Z,1004.56
2017-07-10T03:27:52.126Z,1004.62
2017-07-10T03:29:04.683Z,1004.65
2017-07-10T03:30:17.280Z,1004.61
2017-07-10T03:31:28.624Z,1004.59
2017-07-10T03:32:40.321Z,1004.58
2017-07-10T03:33:52.553Z,1004.6
2017-07-10T03:35:05.205Z,1004.6
2017-07-10T03:36:17.758Z,1004.6
2017-07-10T03:37:30.029Z,1004.63
2017-07-10T03:38:41.967Z,1004.67
2017-07-10T03:39:54.595Z,1004.66
2017-07-10T03:41:06.898Z,1004.69
2017-07-10T03:42:19.444Z,1004.66
2017-07-10T03:43:31.744Z,1004.64
2017-07-10T03:44:43.716Z,1004.63
2017-07-10T03:45:56.031Z,1004.66
2017-07-10T03:47:08.607Z,1004.63
2017-07-10T03:48:20.852Z,1004.65
2017-07-10T03:49:32.488Z,1004.68
2017-07-10T03:50:45.034Z,1004.65
2017-07-10T03:51:57.736Z,1004.69
2017-07-10T03:53:10.328Z,1004.68
2017-07-10T03:54:22.977Z,1004.72
2017-07-10T03:55:35.573Z,1004.68
2017-07-10T03:56:47.500Z,1004.63
2017-07-10T03:58:00.059Z,1004.6
2017-07-10T03:59:12.667Z,1004.62
2017-07-10T04:00:25.526Z,1004.62
2017-07-10T04:01:37.874Z,1004.59
2017-07-10T04:02:50.430Z,1004.61
2017-07-10T04:04:02.706Z,1004.61
2017-07-10T04:05:15.290Z,1004.61
2017-07-10T04:06:27.832Z,1004.53
2017-07-10T04:07:40.138Z,1004.51
2017-07-10T04:08:52.422Z,1004.47
2017-07-10T04:10:04.342Z,1004.43
2017-07-10T04:11:16.314Z,1004.42
2017-07-10T04:12:28.310Z,1004.47
2017-07-10T04:13:40.593Z,1004.49
2017-07-10T04:14:53.153Z,1004.49
2017-07-10T04:16:05.777Z,1004.49
2017-07-10T04:17:18.097Z,1004.49
2017-07-10T04:18:30.671Z,1004.49
2017-07-10T04:19:42.903Z,1004.44
2017-07-10T04:20:55.138Z,1004.45
2017-07-10T04:22:07.428Z,1004.42
2017-07-10T04:23:19.378Z,1004.4
2017-07-10T04:24:30.711Z,1004.39
2017-07-10T04:25:43.058Z,1004.36
2017-07-10T04:26:55.687Z,1004.37
2017-07-10T04:28:07.935Z,1004.41
2017-07-10T04:29:19.583Z,1004.36
2017-07-10T04:30:32.175Z,1004.38
2017-07-10T04:31:44.488Z,1004.34
2017-07-10T04:32:56.716Z,1004.37
2017-07-10T04:34:09.290Z,1004.3
2017-07-10T04:35:21.949Z,1004.31
2017-07-10T04:36:34.511Z,1004.25
2017-07-10T04:37:46.800Z,1004.26
2017-07-10T04:38:59.371Z,1004.23
2017-07-10T04:40:11.948Z,1004.21
2017-07-10T04:41:24.189Z,1004.21
2017-07-10T04:42:36.112Z,1004.16
2017-07-10T04:43:48.436Z,1004.16
2017-07-10T04:45:01.010Z,1004.15
2017-07-10T04:46:13.528Z,1004.14
2017-07-10T04:47:26.067Z,1004.17
2017-07-10T04:48:38.243Z,1004.15
2017-07-10T04:49:50.538Z,1004.13
2017-07-10T04:51:02.805Z,1004.11
2017-07-10T04:52:15.326Z,1004.14
2017-07-10T04:53:28.002Z,1004.14
2017-07-10T04:54:40.548Z,1004.09
2017-07-10T04:55:52.555Z,1004.14
2017-07-10T04:57:04.815Z,1004.1
2017-07-10T04:58:17.124Z,1004.12
2017-07-10T04:59:29.383Z,1004.11
2017-07-10T05:00:42.023Z,1004.06
2017-07-10T05:01:54.335Z,1004.01
2017-07-10T05:03:06.894Z,1004.03
2017-07-10T05:04:19.240Z,1004
2017-07-10T05:05:31.812Z,1004.05
2017-07-10T05:06:44.391Z,1004.02
2017-07-10T05:07:56.359Z,1004.06
2017-07-10T05:09:09.000Z,1004
2017-07-10T05:10:21.620Z,1004.03
2017-07-10T05:11:33.263Z,1004.01
2017-07-10T05:12:45.912Z,1003.98
2017-07-10T05:13:58.479Z,1004.01
2017-07-10T05:15:10.731Z,1004
2017-07-10T05:16:23.346Z,1004
2017-07-10T05:17:35.656Z,1003.96
2017-07-10T05:18:47.965Z,1003.93
2017-07-10T05:20:00.574Z,1003.93
2017-07-10T05:21:12.833Z,1003.91
2017-07-10T05:22:24.809Z,1003.84
2017-07-10T05:23:36.479Z,1003.89
2017-07-10T05:24:48.782Z,1003.89
2017-07-10T05:26:01.017Z,1003.92
2017-07-10T05:27:13.313Z,1003.89
2017-07-10T05:28:25.853Z,1003.89
2017-07-10T05:29:38.417Z,1003.88
2017-07-10T05:30:50.695Z,1003.81
2017-07-10T05:32:03.589Z,1003.78
2017-07-10T05:33:15.936Z,1003.71
2017-07-10T05:34:28.224Z,1003.69
2017-07-10T05:35:39.914Z,1003.66
2017-07-10T05:36:52.174Z,1003.71
2017-07-10T05:38:04.770Z,1003.77
2017-07-10T05:39:16.998Z,1003.82
2017-07-10T05:40:29.265Z,1003.79
2017-07-10T05:41:41.915Z,1003.83
2017-07-10T05:42:53.896Z,1003.81
2017-07-10T05:44:06.485Z,1003.79
2017-07-10T05:45:19.032Z,1003.77
2017-07-10T05:46:31.642Z,1003.75
2017-07-10T05:47:44.213Z,1003.72
2017-07-10T05:48:56.760Z,1003.67
2017-07-10T05:50:09.332Z,1003.73
2017-07-10T05:51:21.862Z,1003.69
2017-07-10T05:52:34.146Z,1003.72
2017-07-10T05:53:46.471Z,1003.7
2017-07-10T05:54:59.144Z,1003.62
2017-07-10T05:56:11.833Z,1003.63
2017-07-10T05:57:24.061Z,1003.59
2017-07-10T05:58:36.382Z,1003.58
2017-07-10T05:59:48.326Z,1003.62
2017-07-10T06:01:00.544Z,1003.61
2017-07-10T06:02:12.788Z,1003.59
2017-07-10T06:03:25.035Z,1003.63
2017-07-10T06:04:37.806Z,1003.61
2017-07-10T06:05:50.007Z,1003.61
2017-07-10T06:07:01.996Z,1003.64
2017-07-10T06:08:14.311Z,1003.68
2017-07-10T06:09:26.543Z,1003.64
2017-07-10T06:10:38.853Z,1003.63
2017-07-10T06:11:51.381Z,1003.65
2017-07-10T06:13:03.007Z,1003.63
2017-07-10T06:14:15.547Z,1003.61
2017-07-10T06:15:27.525Z,1003.6
2017-07-10T06:16:39.169Z,1003.6
2017-07-10T06:17:51.446Z,1003.56
2017-07-10T06:19:03.699Z,1003.56
2017-07-10T06:20:15.963Z,1003.59
2017-07-10T06:21:27.934Z,1003.5
2017-07-10T06:22:40.548Z,1003.49
2017-07-10T06:23:52.807Z,1003.45
2017-07-10T06:25:05.053Z,1003.46
2017-07-10T06:26:17.589Z,1003.53
2017-07-10T06:27:29.852Z,1003.58
2017-07-10T06:28:42.404Z,1003.65
2017-07-10T06:29:54.976Z,1003.66
2017-07-10T06:31:07.595Z,1003.64
2017-07-10T06:32:19.892Z,1003.62
2017-07-10T06:33:32.560Z,1003.67
2017-07-10T06:34:43.657Z,1003.65
2017-07-10T06:35:55.667Z,1003.71
2017-07-10T06:37:07.936Z,1003.75
2017-07-10T06:38:20.516Z,1003.79
2017-07-10T06:39:33.124Z,1003.78
2017-07-10T06:40:45.476Z,1003.79
2017-07-10T06:41:57.153Z,1003.73
2017-07-10T06:43:09.449Z,1003.78
2017-07-10T06:44:21.355Z,1003.74
2017-07-10T06:45:33.916Z,1003.65
2017-07-10T06:46:46.545Z,1003.62
2017-07-10T06:47:59.144Z,1003.61
2017-07-10T06:49:10.829Z,1003.61
2017-07-10T06:50:23.143Z,1003.53
2017-07-10T06:51:35.763Z,1003.53
2017-07-10T06:52:48.022Z,1003.51
2017-07-10T06:54:00.244Z,1003.54
2017-07-10T06:55:12.183Z,1003.5
2017-07-10T06:56:23.861Z,1003.5
2017-07-10T06:57:36.504Z,1003.51
2017-07-10T06:58:49.124Z,1003.47
2017-07-10T07:00:01.767Z,1003.44
2017-07-10T07:01:13.744Z,1003.44
2017-07-10T07:02:25.394Z,1003.41
2017-07-10T07:03:37.305Z,1003.34
2017-07-10T07:04:49.293Z,1003.32
2017-07-10T07:06:01.521Z,1003.32
2017-07-10T07:07:13.193Z,1003.25
2017-07-10T07:08:25.800Z,1003.26
2017-07-10T07:09:38.387Z,1003.22
2017-07-10T07:10:50.692Z,1003.26
2017-07-10T07:12:02.632Z,1003.24
2017-07-10T07:13:15.222Z,1003.25
2017-07-10T07:14:27.819Z,1003.22
2017-07-10T07:15:39.815Z,1003.2
2017-07-10T07:16:52.447Z,1003.23
2017-07-10T07:18:05.034Z,1003.25
2017-07-10T07:19:17.254Z,1003.29
2017-07-10T07:20:29.512Z,1003.23
2017-07-10T07:21:41.820Z,1003.21
2017-07-10T07:22:54.445Z,1003.21
2017-07-10T07:24:06.066Z,1003.18
2017-07-10T07:25:17.706Z,1003.16
2017-07-10T07:26:29.958Z,1003.14
2017-07-10T07:27:42.533Z,1003.11
2017-07-10T07:28:54.826Z,1003.14
2017-07-10T07:30:07.398Z,1003.13
2017-07-10T07:31:19.748Z,1003.14
2017-07-10T07:32:31.732Z,1003.13
2017-07-10T07:33:44.328Z,1003.12
2017-07-10T07:34:56.298Z,1003.07
2017-07-10T07:36:08.826Z,1003.04
2017-07-10T07:37:20.843Z,1003
2017-07-10T07:38:33.467Z,1003
2017-07-10T07:39:45.769Z,1003.03
2017-07-10T07:40:58.359Z,1003.05
2017-07-10T07:42:10.955Z,1003.08
2017-07-10T07:43:22.919Z,1003.11
2017-07-10T07:44:34.841Z,1003.09
2017-07-10T07:45:47.362Z,1003.07
2017-07-10T07:46:58.682Z,1003.05
2017-07-10T07:48:10.370Z,1003.06
2017-07-10T07:49:22.353Z,1003.02
2017-07-10T07:50:34.626Z,1002.99
2017-07-10T07:51:47.242Z,1003.01
2017-07-10T07:52:58.873Z,1003.06
2017-07-10T07:54:10.906Z,1003.05
2017-07-10T07:55:22.886Z,1003.06
2017-07-10T07:56:35.475Z,1003.04
2017-07-10T07:57:48.083Z,1003.02
2017-07-10T07:59:00.417Z,1003.02
2017-07-10T08:00:13.041Z,1003.02
2017-07-10T08:01:25.647Z,1003.01
2017-07-10T08:02:38.298Z,1003.02
2017-07-10T08:03:50.593Z,1003.03
2017-07-10T08:05:02.521Z,1003.09
2017-07-10T08:06:14.493Z,1003.11
2017-07-10T08:07:27.145Z,1003.11
2017-07-10T08:08:39.461Z,1003.12
2017-07-10T08:09:51.123Z,1003.17
2017-07-10T08:11:03.062Z,1003.13
2017-07-10T08:12:15.751Z,1003.14
2017-07-10T08:13:28.072Z,1003.18
2017-07-10T08:14:40.389Z,1003.19
2017-07-10T08:15:53.024Z,1003.23
2017-07-10T08:17:05.673Z,1003.29
2017-07-10T08:18:17.914Z,1003.36
2017-07-10T08:19:29.857Z,1003.39
2017-07-10T08:20:42.118Z,1003.44
2017-07-10T08:21:54.697Z,1003.57
2017-07-10T08:23:06.359Z,1003.7
2017-07-10T08:24:17.708Z,1003.8
2017-07-10T08:25:29.679Z,1003.98
2017-07-10T08:26:41.624Z,1003.99
2017-07-10T08:27:52.930Z,1004.01
2017-07-10T08:29:04.619Z,1003.97
2017-07-10T08:30:16.888Z,1003.99
2017-07-10T08:31:28.832Z,1004.05
2017-07-10T08:32:40.819Z,1004.05
2017-07-10T08:33:53.074Z,1004.09
2017-07-10T08:35:04.996Z,1004.12
2017-07-10T08:36:17.597Z,1004.09
2017-07-10T08:37:30.212Z,1004.14
2017-07-10T08:38:42.821Z,1004.07
2017-07-10T08:39:55.357Z,1004.04
2017-07-10T08:41:07.664Z,1004
2017-07-10T08:42:19.989Z,1003.97
2017-07-10T08:43:32.243Z,1003.92
2017-07-10T08:44:44.799Z,1003.96
2017-07-10T08:45:56.793Z,1003.93
2017-07-10T08:47:08.797Z,1003.92
2017-07-10T08:48:20.134Z,1003.88
2017-07-10T08:49:32.680Z,1003.88
2017-07-10T08:50:44.949Z,1003.92
2017-07-10T08:51:57.505Z,1003.96
2017-07-10T08:53:09.820Z,1003.93
2017-07-10T08:54:21.755Z,1003.88
2017-07-10T08:55:34.051Z,1003.85
2017-07-10T08:56:46.603Z,1003.84
2017-07-10T08:57:58.633Z,1003.77
2017-07-10T08:59:10.642Z,1003.71
2017-07-10T09:00:22.612Z,1003.64
2017-07-10T09:01:34.623Z,1003.58
2017-07-10T09:02:47.154Z,1003.51
2017-07-10T09:03:59.723Z,1003.41
2017-07-10T09:05:12.346Z,1003.4
2017-07-10T09:06:24.597Z,1003.47
2017-07-10T09:07:36.872Z,1003.52
2017-07-10T09:08:49.136Z,1003.5
2017-07-10T09:10:01.817Z,1003.41
2017-07-10T09:11:14.073Z,1003.3
2017-07-10T09:12:26.619Z,1003.33
2017-07-10T09:13:38.895Z,1003.34
2017-07-10T09:14:51.206Z,1003.34
2017-07-10T09:16:02.836Z,1003.33
2017-07-10T09:17:14.801Z,1003.28
2017-07-10T09:18:26.782Z,1003.21
2017-07-10T09:19:38.701Z,1003.16
2017-07-10T09:20:50.665Z,1003.11
2017-07-10T09:22:02.912Z,1003.12
2017-07-10T09:23:14.856Z,1003.13
2017-07-10T09:24:26.542Z,1003.07
2017-07-10T09:25:38.836Z,1003.06
2017-07-10T09:26:51.101Z,1003.05
2017-07-10T09:28:02.773Z,1003.05
2017-07-10T09:29:15.354Z,1003.07
2017-07-10T09:30:26.640Z,1003.05
2017-07-10T09:31:38.529Z,1002.99
2017-07-10T09:32:50.223Z,1002.93
2017-07-10T09:34:02.850Z,1002.89
2017-07-10T09:35:14.492Z,1002.87
2017-07-10T09:36:27.149Z,1002.87
2017-07-10T09:37:39.786Z,1002.9
2017-07-10T09:38:52.415Z,1002.82
2017-07-10T09:40:04.381Z,1002.78
2017-07-10T09:41:16.664Z,1002.76
2017-07-10T09:42:28.298Z,1002.73
2017-07-10T09:43:40.500Z,1002.66
2017-07-10T09:44:53.058Z,1002.65
2017-07-10T09:46:05.008Z,1002.66
2017-07-10T09:47:16.962Z,1002.64
2017-07-10T09:48:29.299Z,1002.65
2017-07-10T09:49:41.854Z,1002.69
2017-07-10T09:50:54.445Z,1002.72
2017-07-10T09:52:06.651Z,1002.74
2017-07-10T09:53:19.219Z,1002.76
2017-07-10T09:54:31.831Z,1002.76
2017-07-10T09:55:44.097Z,1002.74
2017-07-10T09:56:56.372Z,1002.73
2017-07-10T09:58:08.669Z,1002.73
2017-07-10T09:59:20.898Z,1002.66
2017-07-10T10:00:33.162Z,1002.65
2017-07-10T10:01:45.740Z,1002.62
2017-07-10T10:02:58.354Z,1002.62
2017-07-10T10:04:10.943Z,1002.57
2017-07-10T10:05:23.220Z,1002.49
2017-07-10T10:06:35.568Z,1002.35
2017-07-10T10:07:47.787Z,1002.12
2017-07-10T10:08:59.833Z,1002
2017-07-10T10:10:11.814Z,1001.82
2017-07-10T10:11:24.111Z,1001.77
2017-07-10T10:12:36.039Z,1001.86
2017-07-10T10:13:48.285Z,1001.89
2017-07-10T10:15:00.591Z,1001.92
2017-07-10T10:16:12.868Z,1001.92
2017-07-10T10:17:25.152Z,1001.9
2017-07-10T10:18:37.755Z,1001.87
2017-07-10T10:19:50.392Z,1001.84
2017-07-10T10:21:02.610Z,1001.82
2017-07-10T10:22:14.298Z,1001.81
2017-07-10T10:23:26.246Z,1001.86
2017-07-10T10:24:38.515Z,1001.9
2017-07-10T10:25:50.797Z,1001.91
2017-07-10T10:27:03.133Z,1001.96
2017-07-10T10:28:15.426Z,1001.88
2017-07-10T10:29:27.725Z,1001.88
2017-07-10T10:30:39.693Z,1001.88
2017-07-10T10:31:51.980Z,1001.86
2017-07-10T10:33:04.609Z,1001.88
2017-07-10T10:34:16.891Z,1001.9
2017-07-10T10:35:29.509Z,1001.96
2017-07-10T10:36:41.157Z,1001.95
2017-07-10T10:37:53.076Z,1001.95
2017-07-10T10:39:05.414Z,1001.98
2017-07-10T10:40:17.429Z,1002.01
2017-07-10T10:41:29.616Z,1002
2017-07-10T10:42:41.927Z,1002.04
2017-07-10T10:43:54.558Z,1002.07
2017-07-10T10:45:06.560Z,1002.12
2017-07-10T10:46:17.928Z,1002.04
2017-07-10T10:47:30.477Z,1002.09
2017-07-10T10:48:42.720Z,1002.08
2017-07-10T10:49:55.044Z,1002.12
2017-07-10T10:51:07.595Z,1002.09
2017-07-10T10:52:19.510Z,1002.11
2017-07-10T10:53:31.493Z,1002.11
2017-07-10T10:54:43.396Z,1002.1
2017-07-10T10:55:55.410Z,1002.13
2017-07-10T10:57:07.703Z,1002.17
2017-07-10T10:58:20.059Z,1002.21
2017-07-10T10:59:32.005Z,1002.21
2017-07-10T11:00:43.376Z,1002.23
2017-07-10T11:01:55.972Z,1002.26
2017-07-10T11:03:07.941Z,1002.27
2017-07-10T11:04:19.920Z,1002.25
2017-07-10T11:05:32.577Z,1002.26
2017-07-10T11:06:44.856Z,1002.3
2017-07-10T11:07:57.138Z,1002.26
2017-07-10T11:09:09.811Z,1002.26
2017-07-10T11:10:22.449Z,1002.21
2017-07-10T11:11:34.439Z,1002.25
2017-07-10T11:12:46.991Z,1002.28
2017-07-10T11:13:59.337Z,1002.26
2017-07-10T11:15:11.276Z,1002.24
2017-07-10T11:16:23.854Z,1002.21
2017-07-10T11:17:35.814Z,1002.28
2017-07-10T11:18:47.820Z,1002.38
2017-07-10T11:20:00.362Z,1002.4
2017-07-10T11:21:12.283Z,1002.53
2017-07-10T11:22:24.881Z,1002.58
2017-07-10T11:23:36.540Z,1002.55
2017-07-10T11:24:48.799Z,1002.48
2017-07-10T11:26:00.771Z,1002.59
2017-07-10T11:27:13.086Z,1002.51
2017-07-10T11:28:25.655Z,1002.48
2017-07-10T11:29:37.295Z,1002.47
2017-07-10T11:30:49.550Z,1002.49
2017-07-10T11:32:01.836Z,1002.32
2017-07-10T11:33:14.466Z,1002.28
2017-07-10T11:34:26.787Z,1002.31
2017-07-10T11:35:38.992Z,1002.27
2017-07-10T11:36:51.339Z,1002.23
2017-07-10T11:38:03.631Z,1002.26
2017-07-10T11:39:15.857Z,1002.31
2017-07-10T11:40:28.473Z,1002.31
2017-07-10T11:41:40.456Z,1002.28
2017-07-10T11:42:52.695Z,1002.31
2017-07-10T11:44:04.996Z,1002.34
2017-07-10T11:45:17.555Z,1002.41
2017-07-10T11:46:29.830Z,1002.36
2017-07-10T11:47:42.131Z,1002.43
2017-07-10T11:48:54.395Z,1002.43
2017-07-10T11:50:06.737Z,1002.39
2017-07-10T11:51:19.311Z,1002.35
2017-07-10T11:52:31.651Z,1002.39
2017-07-10T11:53:43.639Z,1002.32
2017-07-10T11:54:56.198Z,1002.35
2017-07-10T11:56:08.125Z,1002.34
2017-07-10T11:57:20.440Z,1002.32
2017-07-10T11:58:32.373Z,1002.39
2017-07-10T11:59:44.602Z,1002.39
2017-07-10T12:00:56.946Z,1002.32
2017-07-10T12:02:08.336Z,1002.29
2017-07-10T12:03:20.564Z,1002.32
2017-07-10T12:04:32.553Z,1002.33
2017-07-10T12:05:45.161Z,1002.34
2017-07-10T12:06:57.403Z,1002.32
2017-07-10T12:08:10.051Z,1002.3
2017-07-10T12:09:22.344Z,1002.37
2017-07-10T12:10:34.973Z,1002.37
2017-07-10T12:11:47.186Z,1002.42
2017-07-10T12:12:59.519Z,1002.45
2017-07-10T12:14:12.078Z,1002.41
2017-07-10T12:15:23.077Z,1002.45
2017-07-10T12:16:34.706Z,1002.45
2017-07-10T12:17:47.322Z,1002.49
2017-07-10T12:18:58.980Z,1002.51
2017-07-10T12:20:10.964Z,1002.53
2017-07-10T12:21:22.912Z,1002.61
2017-07-10T12:22:34.881Z,1002.59
2017-07-10T12:23:46.202Z,1002.58
2017-07-10T12:24:58.196Z,1002.52
2017-07-10T12:26:09.921Z,1002.51
2017-07-10T12:27:22.460Z,1002.57
2017-07-10T12:28:35.030Z,1002.57
2017-07-10T12:29:47.332Z,1002.61
2017-07-10T12:30:59.648Z,1002.58
2017-07-10T12:32:12.218Z,1002.45
2017-07-10T12:33:24.471Z,1002.39
2017-07-10T12:34:37.085Z,1002.4
2017-07-10T12:35:49.347Z,1002.37
2017-07-10T12:37:01.301Z,1002.37
2017-07-10T12:38:13.822Z,1002.3
2017-07-10T12:39:25.807Z,1002.31
2017-07-10T12:40:38.014Z,1002.27
2017-07-10T12:41:50.310Z,1002.27
2017-07-10T12:43:02.992Z,1002.31
2017-07-10T12:44:15.585Z,1002.22
2017-07-10T12:45:28.154Z,1002.18
2017-07-10T12:46:40.744Z,1002.18
2017-07-10T12:47:52.802Z,1002.15
2017-07-10T12:49:05.093Z,1002.22
2017-07-10T12:50:16.789Z,1002.37
2017-07-10T12:51:29.371Z,1002.36
2017-07-10T12:52:42.002Z,1002.4
2017-07-10T12:53:54.571Z,1002.36
2017-07-10T12:55:06.869Z,1002.45
2017-07-10T12:56:18.818Z,1002.49
2017-07-10T12:57:30.809Z,1002.46
2017-07-10T12:58:43.334Z,1002.43
2017-07-10T12:59:55.852Z,1002.41
2017-07-10T13:01:08.095Z,1002.28
2017-07-10T13:02:19.772Z,1002.32
2017-07-10T13:03:31.790Z,1002.36
2017-07-10T13:04:44.661Z,1002.38
2017-07-10T13:05:56.921Z,1002.29
2017-07-10T13:07:09.227Z,1002.2
2017-07-10T13:08:21.221Z,1002.28
2017-07-10T13:09:32.866Z,1002.36
2017-07-10T13:10:44.529Z,1002.25
2017-07-10T13:11:55.259Z,1002.23
2017-07-10T13:13:07.833Z,1002.26
2017-07-10T13:14:20.125Z,1002.24
2017-07-10T13:15:32.389Z,1002.18
2017-07-10T13:16:44.662Z,1002.12
2017-07-10T13:17:57.215Z,1002.1
2017-07-10T13:19:09.518Z,1002.1
2017-07-10T13:20:21.484Z,1002.19
2017-07-10T13:21:33.769Z,1002.22
2017-07-10T13:22:46.038Z,1002.15
2017-07-10T13:23:57.977Z,1002.13
2017-07-10T13:25:10.281Z,1002.23
2017-07-10T13:26:22.540Z,1002.17
2017-07-10T13:27:34.483Z,1002.16
2017-07-10T13:28:45.538Z,1002.13
2017-07-10T13:29:57.824Z,1002.03
2017-07-10T13:31:09.455Z,1002.09
2017-07-10T13:32:21.738Z,1002.2
2017-07-10T13:33:33.991Z,1002.24
2017-07-10T13:34:46.631Z,1002.25
2017-07-10T13:35:58.927Z,1002.24
2017-07-10T13:37:10.857Z,1002.25
2017-07-10T13:38:22.959Z,1002.16
2017-07-10T13:39:35.543Z,1002.32
2017-07-10T13:40:47.486Z,1002.3
2017-07-10T13:41:59.419Z,1002.15
2017-07-10T13:43:11.356Z,1002.06
2017-07-10T13:44:23.005Z,1002.01
2017-07-10T13:45:35.607Z,1002.02
2017-07-10T13:46:47.922Z,1002.01
2017-07-10T13:48:00.211Z,1001.92
2017-07-10T13:49:12.213Z,1001.85
2017-07-10T13:50:24.785Z,1001.83
2017-07-10T13:51:37.055Z,1001.85
2017-07-10T13:52:49.318Z,1001.91
2017-07-10T13:54:01.576Z,1001.98
2017-07-10T13:55:13.569Z,1001.92
2017-07-10T13:56:25.850Z,1001.85
2017-07-10T13:57:38.108Z,1001.86
2017-07-10T13:58:50.625Z,1001.91
2017-07-10T14:00:02.887Z,1001.9
2017-07-10T14:01:14.590Z,1001.83
2017-07-10T14:02:27.180Z,1001.76
2017-07-10T14:03:39.514Z,1001.73
2017-07-10T14:04:52.157Z,1001.69
2017-07-10T14:06:04.803Z,1001.75
2017-07-10T14:07:17.114Z,1001.75
2017-07-10T14:08:29.717Z,1001.81
2017-07-10T14:09:42.238Z,1001.77
2017-07-10T14:10:54.560Z,1001.79
2017-07-10T14:12:06.870Z,1001.87
2017-07-10T14:13:19.207Z,1001.95
2017-07-10T14:14:31.887Z,1001.92
2017-07-10T14:15:44.500Z,1001.74
2017-07-10T14:16:56.831Z,1001.62
2017-07-10T14:18:08.783Z,1001.62
2017-07-10T14:19:21.411Z,1001.6
2017-07-10T14:20:33.694Z,1001.63
2017-07-10T14:21:46.252Z,1001.59
2017-07-10T14:22:57.932Z,1001.5
2017-07-10T14:24:08.957Z,1001.41
2017-07-10T14:25:21.210Z,1001.36
2017-07-10T14:26:33.423Z,1001.39
2017-07-10T14:27:45.788Z,1001.34
2017-07-10T14:28:58.114Z,1001.35
2017-07-10T14:30:09.542Z,1001.33
2017-07-10T14:31:21.817Z,1001.32
2017-07-10T14:32:33.466Z,1001.31
2017-07-10T14:33:44.799Z,1001.39
2017-07-10T14:34:55.810Z,1001.38
2017-07-10T14:36:07.135Z,1001.45
2017-07-10T14:37:19.481Z,1001.57